Location:  
MeteoStar


Sort by weather type Sort by elevation Sort by visibility Sort from west to east north Sort from north to south Alphabetically Sort from strongest wind speed Sort from lowest to highest pressure Sort from highest to lowest dew point temperature Sort coolest temperatures to warmest Sort warm temperatures to coolest
 Metric

Current Observations for United Kingdom sorted by weather type

Loch Glascanoch11:00ZSnow Showers32 312986.0WNW 5 27869
Trawscoed11:00ZShowers48 434994.7WSW 13 Gusting to 29 43206
Pembrey Sands10:50ZShowers52 414996.1W 37 Gusting to 49 449
Carlisle10:20ZShowers39 374984.2SW 4 3685
Portglenone11:00ZLight Showers41 3915988.7WNW 11 34209
Leeming10:50ZLight Showers45 367987.2SSW 18 37131
Shawbury10:50ZLight Showers46 369992.2SW 22 Gusting to 32 38249
Hawarden10:20ZLight Showers48 4113991.1SW 17 4232
Staverton Private 10:20ZLight Showers46 4125996.2WSW 19 3995
Spadeadam11:00ZHeavy Rain35 N/A2.75985.5W 12 935
Spadeadam10:50ZRain34 342984.6W 12 251066
Aviemore11:00ZLight Rain34 319984.9N 4 30721
Boulmer10:50ZLight Rain39 3610985.1S 13 3175
Kinloss10:50ZLight Rain36 3415984.1W 10 2922
Edinburgh Airport10:20ZLight Rain39 3730984.2WNW 4 36134
Newcastle 10:20ZLight Rain41 3730985.2WSW 12 34265
Fair Isle10:50ZLight Drizzle41 3120978.5WNW 13 34187
Tiree10:20ZShowers nearby41 3720986.1N 19 3239
Stornoway10:20ZShowers nearby36 3425986.1WNW 6 3129
Dundee / Riverside10:20ZShowers nearby41 3730983.1W 9 3513
Benbecula10:20ZShowers nearby39 3430987.1NNW 6 3519
Inverness / Dalcross10:20ZShowers nearby34 3230984.1SW 5 2929
Aberdeen / Dyce10:20ZShowers nearby36 3030981.3W 7 30213
Wick10:20ZShowers nearby36 3420981.2W 10 29127
Kirkwall Airport10:20ZShowers nearby41 3020980.2NW 11 3468
Blackpool Airport10:20ZShowers nearby48 414987.1SW 31 Gusting to 43 3932
Scilly; Saint MaryS10:20ZShowers nearby52 39101002.1W 21 46101
Liverpool Airport 10:20ZShowers nearby46 4115990.1SSW 13 4085
Bristol / Lulsgate 10:20ZShowers nearby46 3915998.3SW 14 40620
Eglinton / Londonderr10:20ZShowers nearby43 3725989.1WNW 13 3629
Saint Helena Island11:00ZCloudy66 59151018.4ESE 15 Gusting to 26 661427
Lerwick11:00ZCloudy37 3025977.5WNW 8 31269
Lossiemouth10:28ZMostly Cloudy37 347983.1NW 11 2942
Valley10:50ZMostly Cloudy48 3925990.1WSW 26 403
Jersey Airport10:20ZMostly Cloudy54 4541004.1W 20 49275
Cardiff-Wales Airport10:20ZMostly Cloudy48 4115997.2WSW 20 Gusting to 33 41219
St Athan Royal Air Force Base10:50ZMostly Cloudy52 3715997.2W 27 Gusting to 41 45164
Manchester Airport10:20ZMostly Cloudy45 3725990.2SSW 14 Gusting to 24 39226
Belfast / Aldergrove Airport10:20ZMostly Cloudy41 3925988.3W 12 34265
Camborne11:00ZPartly Cloudy49 42151002.4W 15 Gusting to 27 43285
Eskdalemuir11:00ZPartly Cloudy40 3511985WSW 6 36793
Leuchars10:50ZPartly Cloudy39 3630983.1WSW 10 3239
Prestwick Airport10:20ZPartly Cloudy41 3730984.2NNW 5 3865
Glasgow Airport10:20ZPartly Cloudy37 3630984.1SW 6 3226
Sumburgh Cape 10:20ZPartly Cloudy39 3020977.1NNW 7 3416
Tees-Side10:20ZPartly Cloudy43 3730987.2S 11 37121
Isle Of Man / Ronaldsway Airport10:20ZPartly Cloudy45 3730986.1W 16 Gusting to 27 3855
Guernsey Airport10:20ZPartly Cloudy52 37251003.2W 21 46334
Alderney / Channel Island10:20ZPartly CloudyN/A N/A15W 20 232
Culdrose10:50ZPartly Cloudy52 37151002.2W 14 Gusting to 27 47255
Belfast / Harbour10:20ZPartly Cloudy43 3925987.1WNW 10 3716
Glenanne11:00ZClear40 3712990.2WNW 12 Gusting to 23 33528
Lough Fea11:00ZClear40 3725989.7WNW 14 32738
Castlederg11:00ZClear42 3830991.5WNW 6 38167
Larkhill11:00ZClear48 3725999.7SW 11 43433
Sennybridge11:00ZClear42 3920996WSW 20 Gusting to 35 331007
Crosby11:00ZClear49 4011989.5SW 26 Gusting to 35 4126
Capel Curig11:00ZClear44 393991WSW 29 Gusting to 48 34708
Loftus Samos11:00ZClear43 3820986.9SSW 22 Gusting to 32 34190
Warcop Range11:00ZClear44 3915985.7WSW 17 Gusting to 29 36744
Keswick11:00ZClear44 3820985.7W 9 Gusting to 25 39265
Dundrennan11:00ZClear42 3825984.7W 16 Gusting to 26 34374
Strathallan11:00ZClear38 3630984.7SW 6 33114
Tulloch Bridge11:00ZClear34 3220986.7NNW 5 29777
Altnaharra11:00ZClear34 3330984S 4 30265
Aultbea11:00ZClear36 3418986.2W 3 3636
South Uist Range11:00ZClear39 3319987.9N 5 3532
Waddington10:50ZClear46 3625992.2SW 18 39223
Leconfield10:50ZClear46 3720990.1SW 16 3919
Middle Wallop10:50ZClear48 3725999.2SW 13 43298
Odiham10:50ZClear48 3620999.2SW 15 42403
Fairford Royal Air Force Base10:56ZClear48 3830997.2CALM48285
Mildenhall Royal Air Force Base10:56ZClear49 3820996.5WSW 13 Gusting to 20 4432
Manston11:00ZClear50 3920999.7W 22 Gusting to 32 43180
Lakenheath Royal Air Force Base10:56ZClear49 399996.2SW 17 Gusting to 23 4332
Aberporth11:00ZClear48 379995WSW 30 Gusting to 50 39436
Exeter Airport10:20ZClear48 3971000.1SW 11 4398
Stansted Airport10:20ZClear48 347997.1WSW 12 43347
Norwich Weather Centre10:20ZClear48 397995.1WSW 13 4345
Tain Range11:00ZClear35 3430984.2W 8 2813
Scatsa / Shetland Island10:20ZClear37 3030977.2WNW 6 3272
West Freugh11:00ZClear42 4030986.0WNW 10 3636
East Midlands10:50ZClear46 3630993.2SSW 20 38308
Leeds And Bradford10:20ZClear43 368988.3SSW 12 37682
Walney Island11:00ZClear45 438986.5SW 23 Gusting to 41 3649
Lydd Airport 10:20ZClear54 4315999.1W 21 499
Southend-On-Sea 10:50ZClear52 3615998.1WSW 14 Gusting to 24 4749
London / Heathrow Airport10:20ZClear50 3715999.1WSW 14 4578
London City Airport10:20ZClear50 364998.1WSW 15 4516
Biggin Hill 10:20ZClear48 374999.2WSW 11 43600
Shoreham Airport10:20ZClear50 3941000.1W 12 456
Southampton / Weather Centre10:20ZClear48 37151000.1WSW 11 4329
Bournemouth Airport10:20ZClear52 39151000.1WSW 13 4836
Luton Airport 10:20ZClear46 3715997.2SW 15 40524
Yeovilton10:50ZClear50 37151000.1SW 11 4675
Boscombe Down10:50ZClear48 3720999.2SW 16 42406
Birmingham / Airport10:20ZClear46 3625994.2SSW 10 41324

Atlantic
Tropical Watch